createdAt,value
2018-04-06T00:00:20.690Z,83.70
2018-04-06T00:01:20.666Z,84.08
2018-04-06T00:02:21.295Z,84.08
2018-04-06T00:03:20.587Z,84.17
2018-04-06T00:04:20.618Z,83.89
2018-04-06T00:05:20.507Z,84.27
2018-04-06T00:06:20.510Z,84.17
2018-04-06T00:07:20.521Z,84.65
2018-04-06T00:08:20.432Z,84.46
2018-04-06T00:09:20.425Z,84.74
2018-04-06T00:10:20.348Z,85.50
2018-04-06T00:11:20.357Z,86.16
2018-04-06T00:12:20.327Z,86.26
2018-04-06T00:13:20.271Z,85.69
2018-04-06T00:14:20.253Z,85.69
2018-04-06T00:15:20.205Z,85.50
2018-04-06T00:16:20.172Z,85.22
2018-04-06T00:17:20.184Z,85.22
2018-04-06T00:18:20.128Z,85.13
2018-04-06T00:19:20.098Z,85.31
2018-04-06T00:20:20.072Z,84.74
2018-04-06T00:21:20.119Z,84.65
2018-04-06T00:22:20.013Z,84.65
2018-04-06T00:23:19.998Z,84.65
2018-04-06T00:24:19.936Z,84.94
2018-04-06T00:25:19.926Z,84.84
2018-04-06T00:26:19.900Z,84.84
2018-04-06T00:27:19.852Z,85.03
2018-04-06T00:28:19.847Z,85.69
2018-04-06T00:29:19.814Z,86.16
2018-04-06T00:30:19.766Z,85.97
2018-04-06T00:31:19.771Z,85.60
2018-04-06T00:32:19.756Z,86.26
2018-04-06T00:33:19.677Z,85.97
2018-04-06T00:34:19.659Z,85.88
2018-04-06T00:35:19.615Z,86.07
2018-04-06T00:36:19.586Z,85.78
2018-04-06T00:37:19.580Z,85.78
2018-04-06T00:38:19.526Z,85.50
2018-04-06T00:39:19.523Z,85.31
2018-04-06T00:40:19.454Z,85.50
2018-04-06T00:41:19.480Z,85.69
2018-04-06T00:42:19.437Z,85.41
2018-04-06T00:43:19.358Z,85.78
2018-04-06T00:44:19.345Z,85.60
2018-04-06T00:45:19.319Z,86.45
2018-04-06T00:46:19.314Z,86.93
2018-04-06T00:47:19.276Z,87.02
2018-04-06T00:48:19.220Z,86.93
2018-04-06T00:49:19.179Z,85.69
2018-04-06T00:50:19.167Z,85.88
2018-04-06T00:51:19.176Z,85.22
2018-04-06T00:52:19.102Z,85.22
2018-04-06T00:53:19.087Z,85.78
2018-04-06T00:54:19.107Z,86.93
2018-04-06T00:55:19.052Z,86.55
2018-04-06T00:56:19.036Z,86.07
2018-04-06T00:57:18.959Z,85.97
2018-04-06T00:58:18.968Z,85.69
2018-04-06T00:59:18.936Z,85.69
2018-04-06T01:00:18.890Z,86.16
2018-04-06T01:01:18.854Z,86.07
2018-04-06T01:02:18.841Z,86.16
2018-04-06T01:03:18.807Z,86.26
2018-04-06T01:04:18.765Z,86.07
2018-04-06T01:05:18.768Z,85.69
2018-04-06T01:06:18.691Z,85.97
2018-04-06T01:07:18.732Z,85.78
2018-04-06T01:08:18.675Z,85.50
2018-04-06T01:09:21.773Z,85.69
2018-04-06T01:10:20.759Z,86.07
2018-04-06T01:11:21.188Z,86.93
2018-04-06T01:12:21.706Z,86.26
2018-04-06T01:13:18.488Z,86.55
2018-04-06T01:14:18.474Z,86.74
2018-04-06T01:15:18.464Z,86.55
2018-04-06T01:16:18.501Z,87.02
2018-04-06T01:17:18.356Z,87.30
2018-04-06T01:18:18.379Z,88.06
2018-04-06T01:19:18.307Z,88.11
2018-04-06T01:20:18.298Z,88.06
2018-04-06T01:21:18.257Z,88.35
2018-04-06T01:22:18.221Z,87.92
2018-04-06T01:23:18.167Z,87.45
2018-04-06T01:24:18.173Z,87.30
2018-04-06T01:25:18.168Z,86.88
2018-04-06T01:26:18.166Z,86.93
2018-04-06T01:27:18.114Z,86.93
2018-04-06T01:28:18.016Z,86.26
2018-04-06T01:29:18.023Z,86.74
2018-04-06T01:30:18.074Z,86.07
2018-04-06T01:31:17.945Z,86.26
2018-04-06T01:32:17.971Z,86.93
2018-04-06T01:33:17.906Z,86.83
2018-04-06T01:34:17.877Z,86.83
2018-04-06T01:35:17.839Z,86.93
2018-04-06T01:36:17.831Z,87.21
2018-04-06T01:37:17.764Z,87.77
2018-04-06T01:38:17.729Z,88.06
2018-04-06T01:39:17.701Z,87.97
2018-04-06T01:40:17.676Z,87.73
2018-04-06T01:41:17.660Z,87.02
2018-04-06T01:42:17.628Z,86.83
2018-04-06T01:43:17.776Z,86.93
2018-04-06T01:44:17.558Z,86.45
2018-04-06T01:45:17.529Z,87.12
2018-04-06T01:46:17.502Z,87.49
2018-04-06T01:47:17.474Z,87.49
2018-04-06T01:48:17.449Z,87.45
2018-04-06T01:49:17.400Z,88.25
2018-04-06T01:50:17.376Z,88.25
2018-04-06T01:51:17.329Z,87.30
2018-04-06T01:52:17.379Z,86.88
2018-04-06T01:53:17.304Z,87.35
2018-04-06T01:54:17.270Z,88.02
2018-04-06T01:55:17.214Z,88.06
2018-04-06T01:56:17.175Z,87.64
2018-04-06T01:57:17.172Z,87.02
2018-04-06T01:58:17.153Z,86.03
2018-04-06T01:59:17.092Z,85.55
2018-04-06T02:00:17.141Z,85.46
2018-04-06T02:01:17.046Z,85.88
2018-04-06T02:02:17.029Z,85.65
2018-04-06T02:03:17.014Z,85.55
2018-04-06T02:04:16.973Z,86.12
2018-04-06T02:05:16.916Z,87.07
2018-04-06T02:06:16.904Z,87.26
2018-04-06T02:07:16.853Z,86.60
2018-04-06T02:08:16.853Z,87.26
2018-04-06T02:09:16.811Z,86.88
2018-04-06T02:10:16.766Z,86.88
2018-04-06T02:11:16.769Z,86.98
2018-04-06T02:12:16.759Z,88.11
2018-04-06T02:13:16.670Z,88.40
2018-04-06T02:14:16.659Z,87.92
2018-04-06T02:15:16.634Z,88.30
2018-04-06T02:16:16.606Z,87.92
2018-04-06T02:17:16.582Z,87.92
2018-04-06T02:18:16.567Z,88.21
2018-04-06T02:19:16.503Z,87.92
2018-04-06T02:20:16.481Z,88.96
2018-04-06T02:21:17.208Z,88.68
2018-04-06T02:22:16.436Z,88.96
2018-04-06T02:23:16.370Z,89.34
2018-04-06T02:24:16.346Z,89.91
2018-04-06T02:25:16.330Z,90.01
2018-04-06T02:26:16.292Z,90.10
2018-04-06T02:27:16.270Z,89.82
2018-04-06T02:28:16.237Z,89.72
2018-04-06T02:29:16.218Z,89.06
2018-04-06T02:30:16.194Z,88.96
2018-04-06T02:31:16.152Z,89.44
2018-04-06T02:32:16.705Z,90.10
2018-04-06T02:33:16.109Z,89.91
2018-04-06T02:34:16.051Z,89.91
2018-04-06T02:35:16.033Z,89.91
2018-04-06T02:36:15.990Z,89.91
2018-04-06T02:37:15.967Z,89.82
2018-04-06T02:38:15.946Z,89.91
2018-04-06T02:39:15.938Z,89.72
2018-04-06T02:40:15.880Z,90.29
2018-04-06T02:41:15.829Z,90.20
2018-04-06T02:42:15.794Z,89.63
2018-04-06T02:43:15.780Z,90.10
2018-04-06T02:44:15.803Z,89.72
2018-04-06T02:45:15.719Z,90.86
2018-04-06T02:46:15.695Z,90.39
2018-04-06T02:47:15.684Z,90.29
2018-04-06T02:48:15.621Z,90.29
2018-04-06T02:49:15.651Z,90.10
2018-04-06T02:50:15.567Z,90.29
2018-04-06T02:51:15.612Z,90.39
2018-04-06T02:52:15.512Z,90.29
2018-04-06T02:53:15.775Z,90.67
2018-04-06T02:54:15.483Z,91.62
2018-04-06T02:55:15.439Z,91.05
2018-04-06T02:56:15.407Z,90.58
2018-04-06T02:57:15.365Z,90.86
2018-04-06T02:58:15.352Z,90.48
2018-04-06T02:59:15.326Z,90.58
2018-04-06T03:00:15.304Z,89.91
2018-04-06T03:01:15.269Z,90.01
2018-04-06T03:02:15.227Z,90.39
2018-04-06T03:03:15.212Z,90.53
2018-04-06T03:04:15.134Z,90.34
2018-04-06T03:05:15.122Z,90.25
2018-04-06T03:06:15.105Z,91.00
2018-04-06T03:07:15.116Z,90.91
2018-04-06T03:08:15.095Z,91.10
2018-04-06T03:09:15.093Z,91.90
2018-04-06T03:10:14.946Z,91.19
2018-04-06T03:11:14.951Z,90.95
2018-04-06T03:12:14.942Z,90.77
2018-04-06T03:13:14.858Z,90.86
2018-04-06T03:14:14.878Z,90.95
2018-04-06T03:15:14.822Z,90.58
2018-04-06T03:16:14.798Z,90.20
2018-04-06T03:17:14.781Z,90.25
2018-04-06T03:18:14.714Z,89.96
2018-04-06T03:19:14.720Z,89.96
2018-04-06T03:20:14.677Z,90.81
2018-04-06T03:21:14.632Z,90.15
2018-04-06T03:22:14.640Z,90.34
2018-04-06T03:23:14.718Z,90.25
2018-04-06T03:24:14.554Z,90.15
2018-04-06T03:25:14.549Z,90.34
2018-04-06T03:26:14.484Z,90.81
2018-04-06T03:27:14.509Z,90.72
2018-04-06T03:28:14.580Z,90.53
2018-04-06T03:29:14.759Z,90.53
2018-04-06T03:30:14.361Z,90.63
2018-04-06T03:31:14.363Z,91.19
2018-04-06T03:32:14.324Z,90.91
2018-04-06T03:33:14.287Z,91.38
2018-04-06T03:34:14.418Z,91.95
2018-04-06T03:35:14.215Z,91.29
2018-04-06T03:36:14.204Z,91.10
2018-04-06T03:37:14.232Z,91.19
2018-04-06T03:38:14.131Z,91.00
2018-04-06T03:39:14.085Z,90.81
2018-04-06T03:40:14.098Z,90.25
2018-04-06T03:41:14.086Z,91.00
2018-04-06T03:42:14.033Z,90.81
2018-04-06T03:43:13.968Z,91.19
2018-04-06T03:44:13.950Z,90.34
2018-04-06T03:45:13.919Z,90.15
2018-04-06T03:46:13.868Z,90.34
2018-04-06T03:47:13.856Z,90.25
2018-04-06T03:48:13.801Z,90.34
2018-04-06T03:49:13.828Z,90.53
2018-04-06T03:50:13.761Z,90.91
2018-04-06T03:51:13.718Z,90.91
2018-04-06T03:52:13.713Z,90.91
2018-04-06T03:53:13.676Z,91.10
2018-04-06T03:54:13.628Z,91.38
2018-04-06T03:55:13.629Z,90.63
2018-04-06T03:56:13.577Z,91.00
2018-04-06T03:57:13.535Z,90.81
2018-04-06T03:58:13.537Z,90.81
2018-04-06T03:59:13.500Z,90.53
2018-04-06T04:00:13.494Z,91.38
2018-04-06T04:01:13.415Z,91.34
2018-04-06T04:02:13.392Z,90.77
2018-04-06T04:03:13.364Z,91.19
2018-04-06T04:04:13.327Z,91.34
2018-04-06T04:05:13.296Z,91.91
2018-04-06T04:06:13.262Z,92.38
2018-04-06T04:07:13.231Z,92.47
2018-04-06T04:08:13.191Z,92.66
2018-04-06T04:09:13.188Z,92.57
2018-04-06T04:10:13.175Z,92.57
2018-04-06T04:11:13.106Z,92.29
2018-04-06T04:12:13.073Z,92.00
2018-04-06T04:13:13.093Z,92.29
2018-04-06T04:14:13.024Z,92.38
2018-04-06T04:15:13.002Z,92.29
2018-04-06T04:16:13.739Z,93.04
2018-04-06T04:17:12.971Z,93.23
2018-04-06T04:18:12.900Z,92.66
2018-04-06T04:19:12.914Z,92.57
2018-04-06T04:20:12.823Z,92.38
2018-04-06T04:21:12.817Z,92.47
2018-04-06T04:22:12.748Z,92.29
2018-04-06T04:23:12.739Z,92.57
2018-04-06T04:24:12.686Z,92.76
2018-04-06T04:25:12.779Z,92.76
2018-04-06T04:26:12.693Z,92.85
2018-04-06T04:27:12.603Z,92.47
2018-04-06T04:28:12.612Z,92.57
2018-04-06T04:29:12.579Z,92.94
2018-04-06T04:30:12.500Z,92.66
2018-04-06T04:31:12.487Z,92.76
2018-04-06T04:32:12.488Z,92.94
2018-04-06T04:33:12.412Z,92.57
2018-04-06T04:34:12.414Z,92.76
2018-04-06T04:35:12.393Z,92.76
2018-04-06T04:36:12.327Z,92.76
2018-04-06T04:37:12.329Z,92.66
2018-04-06T04:38:12.268Z,93.04
2018-04-06T04:39:12.241Z,93.32
2018-04-06T04:40:12.200Z,92.66
2018-04-06T04:41:12.232Z,92.85
2018-04-06T04:42:12.262Z,93.32
2018-04-06T04:43:12.117Z,93.32
2018-04-06T04:44:12.103Z,93.04
2018-04-06T04:45:12.101Z,93.13
2018-04-06T04:46:12.054Z,93.51
2018-04-06T04:47:12.004Z,93.70
2018-04-06T04:48:11.960Z,93.32
2018-04-06T04:49:11.952Z,93.23
2018-04-06T04:50:11.914Z,93.04
2018-04-06T04:51:11.883Z,93.23
2018-04-06T04:52:12.945Z,93.42
2018-04-06T04:53:15.319Z,93.61
2018-04-06T04:54:12.192Z,93.61
2018-04-06T04:55:11.746Z,93.99
2018-04-06T04:56:11.721Z,93.32
2018-04-06T04:57:11.698Z,93.32
2018-04-06T04:58:11.670Z,93.51
2018-04-06T04:59:12.177Z,93.99
2018-04-06T05:00:11.600Z,93.99
2018-04-06T05:01:11.566Z,93.80
2018-04-06T05:02:11.573Z,93.32
2018-04-06T05:03:11.500Z,93.32
2018-04-06T05:04:11.498Z,93.13
2018-04-06T05:05:11.456Z,93.23
2018-04-06T05:06:11.438Z,93.23
2018-04-06T05:07:11.371Z,93.37
2018-04-06T05:08:11.351Z,92.61
2018-04-06T05:09:11.343Z,92.66
2018-04-06T05:10:11.320Z,93.04
2018-04-06T05:11:11.277Z,93.04
2018-04-06T05:12:11.260Z,92.94
2018-04-06T05:13:11.223Z,93.89
2018-04-06T05:14:11.143Z,93.42
2018-04-06T05:15:11.172Z,93.89
2018-04-06T05:16:11.129Z,93.70
2018-04-06T05:17:11.077Z,93.61
2018-04-06T05:18:11.085Z,93.89
2018-04-06T05:19:11.034Z,93.61
2018-04-06T05:20:11.011Z,94.08
2018-04-06T05:21:11.016Z,93.70
2018-04-06T05:22:10.911Z,93.42
2018-04-06T05:23:10.884Z,94.08
2018-04-06T05:24:10.902Z,93.42
2018-04-06T05:25:10.819Z,93.99
2018-04-06T05:26:10.838Z,93.70
2018-04-06T05:27:10.766Z,94.08
2018-04-06T05:28:10.740Z,94.08
2018-04-06T05:29:10.704Z,93.80
2018-04-06T05:30:10.707Z,93.99
2018-04-06T05:31:10.695Z,93.61
2018-04-06T05:32:10.617Z,93.32
2018-04-06T05:33:10.583Z,92.94
2018-04-06T05:34:10.574Z,93.80
2018-04-06T05:35:10.505Z,93.61
2018-04-06T05:36:10.492Z,93.23
2018-04-06T05:37:10.471Z,93.42
2018-04-06T05:38:10.446Z,93.61
2018-04-06T05:39:10.414Z,93.04
2018-04-06T05:40:11.327Z,93.51
2018-04-06T05:41:10.369Z,93.99
2018-04-06T05:42:10.311Z,93.13
2018-04-06T05:43:10.295Z,93.32
2018-04-06T05:44:10.234Z,93.56
2018-04-06T05:45:10.211Z,93.13
2018-04-06T05:46:10.220Z,93.56
2018-04-06T05:47:10.148Z,92.71
2018-04-06T05:48:10.119Z,92.43
2018-04-06T05:49:10.083Z,92.61
2018-04-06T05:50:10.049Z,92.80
2018-04-06T05:51:10.062Z,92.14
2018-04-06T05:52:09.986Z,92.76
2018-04-06T05:53:10.008Z,92.99
2018-04-06T05:54:09.924Z,92.61
2018-04-06T05:55:09.917Z,92.80
2018-04-06T05:56:09.896Z,92.05
2018-04-06T05:57:09.866Z,92.14
2018-04-06T05:58:09.823Z,92.43
2018-04-06T05:59:09.809Z,92.61
2018-04-06T06:00:09.762Z,92.71
2018-04-06T06:01:09.734Z,92.71
2018-04-06T06:02:09.712Z,92.90
2018-04-06T06:03:09.654Z,93.37
2018-04-06T06:04:09.622Z,93.32
2018-04-06T06:05:09.612Z,93.23
2018-04-06T06:06:09.571Z,93.65
2018-04-06T06:07:09.530Z,94.70
2018-04-06T06:08:09.560Z,94.79
2018-04-06T06:09:09.478Z,93.75
2018-04-06T06:10:09.470Z,93.65
2018-04-06T06:11:09.413Z,93.75
2018-04-06T06:12:09.458Z,93.08
2018-04-06T06:13:09.357Z,92.80
2018-04-06T06:14:09.324Z,92.52
2018-04-06T06:15:09.303Z,92.14
2018-04-06T06:16:09.292Z,91.71
2018-04-06T06:17:09.236Z,91.14
2018-04-06T06:18:09.196Z,90.95
2018-04-06T06:19:09.498Z,91.05
2018-04-06T06:20:09.348Z,90.81
2018-04-06T06:21:09.134Z,91.00
2018-04-06T06:22:09.067Z,91.33
2018-04-06T06:23:09.061Z,90.67
2018-04-06T06:24:09.076Z,91.14
2018-04-06T06:25:08.976Z,90.39
2018-04-06T06:26:09.026Z,91.05
2018-04-06T06:27:08.901Z,90.48
2018-04-06T06:28:08.912Z,90.39
2018-04-06T06:29:08.946Z,90.29
2018-04-06T06:30:08.806Z,90.58
2018-04-06T06:31:08.794Z,90.29
2018-04-06T06:32:08.776Z,90.39
2018-04-06T06:33:08.808Z,90.10
2018-04-06T06:34:08.720Z,90.29
2018-04-06T06:35:08.708Z,90.58
2018-04-06T06:36:08.711Z,90.29
2018-04-06T06:37:08.625Z,90.58
2018-04-06T06:38:08.570Z,89.91
2018-04-06T06:39:08.561Z,89.25
2018-04-06T06:40:08.534Z,88.87
2018-04-06T06:41:08.496Z,88.30
2018-04-06T06:42:08.482Z,88.40
2018-04-06T06:43:08.483Z,88.11
2018-04-06T06:44:08.398Z,87.73
2018-04-06T06:45:08.403Z,87.92
2018-04-06T06:46:08.333Z,87.64
2018-04-06T06:47:08.374Z,87.73
2018-04-06T06:48:08.273Z,88.02
2018-04-06T06:49:08.235Z,89.34
2018-04-06T06:50:08.225Z,89.77
2018-04-06T06:51:08.213Z,88.92
2018-04-06T06:52:08.184Z,87.97
2018-04-06T06:53:08.154Z,86.93
2018-04-06T06:54:08.117Z,87.02
2018-04-06T06:55:08.117Z,87.12
2018-04-06T06:56:08.064Z,86.55
2018-04-06T06:57:08.011Z,87.02
2018-04-06T06:58:07.970Z,87.12
2018-04-06T06:59:07.940Z,86.93
2018-04-06T07:00:07.910Z,86.88
2018-04-06T07:01:07.910Z,86.55
2018-04-06T07:02:07.884Z,86.93
2018-04-06T07:03:07.823Z,86.83
2018-04-06T07:04:07.829Z,86.93
2018-04-06T07:05:07.889Z,86.74
2018-04-06T07:06:07.783Z,86.93
2018-04-06T07:07:07.727Z,86.16
2018-04-06T07:08:07.680Z,85.88
2018-04-06T07:09:07.671Z,85.69
2018-04-06T07:13:07.665Z,85.88
2018-04-06T07:14:07.544Z,84.74
2018-04-06T07:15:07.463Z,84.41
2018-04-06T07:16:09.254Z,84.03
2018-04-06T07:17:07.442Z,84.31
2018-04-06T07:18:07.394Z,84.31
2018-04-06T07:19:07.365Z,84.12
2018-04-06T07:20:07.362Z,83.74
2018-04-06T07:21:07.318Z,83.36
2018-04-06T07:22:07.248Z,82.98
2018-04-06T07:23:07.306Z,83.17
2018-04-06T07:24:07.198Z,82.98
2018-04-06T07:25:07.224Z,82.89
2018-04-06T07:26:07.176Z,82.98
2018-04-06T07:27:07.111Z,83.36
2018-04-06T07:28:07.083Z,83.08
2018-04-06T07:29:07.053Z,82.70
2018-04-06T07:30:07.013Z,82.36
2018-04-06T07:31:07.003Z,82.23
2018-04-06T07:32:07.017Z,82.23
2018-04-06T07:33:06.952Z,81.94
2018-04-06T07:34:06.910Z,82.51
2018-04-06T07:35:06.919Z,82.13
2018-04-06T07:36:06.829Z,82.23
2018-04-06T07:37:06.830Z,82.42
2018-04-06T07:38:06.787Z,82.23
2018-04-06T07:39:06.762Z,82.70
2018-04-06T07:40:06.717Z,82.04
2018-04-06T07:41:06.709Z,82.23
2018-04-06T07:42:06.695Z,82.46
2018-04-06T07:43:06.665Z,82.46
2018-04-06T07:44:06.641Z,81.88
2018-04-06T07:45:06.612Z,81.04
2018-04-06T07:46:06.571Z,81.04
2018-04-06T07:47:07.185Z,80.84
2018-04-06T07:48:06.500Z,80.08
2018-04-06T07:49:06.455Z,80.08
2018-04-06T07:50:06.443Z,80.08
2018-04-06T07:51:07.669Z,80.18
2018-04-06T07:52:06.459Z,79.42
2018-04-06T07:53:06.345Z,79.90
2018-04-06T07:54:06.321Z,79.71
2018-04-06T07:55:06.315Z,79.55
2018-04-06T07:56:06.269Z,79.36
2018-04-06T07:57:06.311Z,78.99
2018-04-06T07:58:06.202Z,78.32
2018-04-06T07:59:06.779Z,78.23
2018-04-06T08:00:06.148Z,78.13
2018-04-06T08:01:06.160Z,77.84
2018-04-06T08:02:06.138Z,77.37
2018-04-06T08:03:06.045Z,76.80
2018-04-06T08:04:06.052Z,77.18
2018-04-06T08:05:06.009Z,77.18
2018-04-06T08:06:06.015Z,77.37
2018-04-06T08:07:05.949Z,78.13
2018-04-06T08:08:05.901Z,77.66
2018-04-06T08:09:05.905Z,77.66
2018-04-06T08:10:05.842Z,77.09
2018-04-06T08:11:05.835Z,77.09
2018-04-06T08:12:05.810Z,77.28
2018-04-06T08:13:05.751Z,76.99
2018-04-06T08:14:05.737Z,76.80
2018-04-06T08:15:05.745Z,76.71
2018-04-06T08:16:05.807Z,76.99
2018-04-06T08:17:05.640Z,77.18
2018-04-06T08:18:05.669Z,76.90
2018-04-06T08:19:05.624Z,76.99
2018-04-06T08:20:05.613Z,76.93
2018-04-06T08:21:05.547Z,76.84
2018-04-06T08:22:05.512Z,76.84
2018-04-06T08:23:05.499Z,76.27
2018-04-06T08:24:05.453Z,76.46
2018-04-06T08:25:05.422Z,76.08
2018-04-06T08:26:05.407Z,76.08
2018-04-06T08:27:05.369Z,75.42
2018-04-06T08:28:05.342Z,75.60
2018-04-06T08:29:05.320Z,75.79
2018-04-06T08:30:05.291Z,75.60
2018-04-06T08:31:05.287Z,75.60
2018-04-06T08:32:05.253Z,75.79
2018-04-06T08:33:05.215Z,75.42
2018-04-06T08:34:05.245Z,75.74
2018-04-06T08:35:05.166Z,74.85
2018-04-06T08:36:05.105Z,74.98
2018-04-06T08:37:05.074Z,74.41
2018-04-06T08:38:05.074Z,74.31
2018-04-06T08:39:05.179Z,74.51
2018-04-06T08:40:05.036Z,74.03
2018-04-06T08:41:05.013Z,73.84
2018-04-06T08:42:04.974Z,74.12
2018-04-06T08:43:04.915Z,73.93
2018-04-06T08:44:04.906Z,74.31
2018-04-06T08:45:04.840Z,73.74
2018-04-06T08:46:04.831Z,73.02
2018-04-06T08:47:04.858Z,72.89
2018-04-06T08:48:04.768Z,73.08
2018-04-06T08:49:04.768Z,72.35
2018-04-06T08:50:04.736Z,71.66
2018-04-06T08:51:04.700Z,71.50
2018-04-06T08:52:04.687Z,71.31
2018-04-06T08:53:04.655Z,70.45
2018-04-06T08:54:04.640Z,69.31
2018-04-06T08:55:04.581Z,68.65
2018-04-06T08:56:04.576Z,68.27
2018-04-06T08:57:04.509Z,68.36
2018-04-06T08:58:04.495Z,68.27
2018-04-06T08:59:04.490Z,68.27
2018-04-06T09:00:04.430Z,67.60
2018-04-06T09:01:04.429Z,67.50
2018-04-06T09:02:04.421Z,66.84
2018-04-06T09:03:04.355Z,66.74
2018-04-06T09:04:04.337Z,66.74
2018-04-06T09:05:04.323Z,66.36
2018-04-06T09:06:04.268Z,66.46
2018-04-06T09:07:04.255Z,66.65
2018-04-06T09:08:04.250Z,66.30
2018-04-06T09:09:04.182Z,66.68
2018-04-06T09:10:04.175Z,66.11
2018-04-06T09:11:04.162Z,66.02
2018-04-06T09:12:04.108Z,66.02
2018-04-06T09:13:04.101Z,65.73
2018-04-06T09:14:04.087Z,64.69
2018-04-06T09:15:04.171Z,63.29
2018-04-06T09:16:04.036Z,62.59
2018-04-06T09:17:03.988Z,62.49
2018-04-06T09:18:03.938Z,63.17
2018-04-06T09:19:03.939Z,62.40
2018-04-06T09:20:03.930Z,61.74
2018-04-06T09:21:03.866Z,61.48
2018-04-06T09:22:03.844Z,61.00
2018-04-06T09:23:03.848Z,61.00
2018-04-06T09:24:03.777Z,60.82
2018-04-06T09:25:03.765Z,60.72
2018-04-06T09:26:03.770Z,60.34
2018-04-06T09:27:03.730Z,60.15
2018-04-06T09:28:03.688Z,60.05
2018-04-06T09:29:03.665Z,59.96
2018-04-06T09:30:03.647Z,60.53
2018-04-06T09:31:03.614Z,60.24
2018-04-06T09:32:03.592Z,60.15
2018-04-06T09:33:03.544Z,59.77
2018-04-06T09:34:03.507Z,59.01
2018-04-06T09:35:03.546Z,58.44
2018-04-06T09:36:03.465Z,58.53
2018-04-06T09:37:03.435Z,57.89
2018-04-06T09:38:03.435Z,56.72
2018-04-06T09:39:03.378Z,57.04
2018-04-06T09:40:03.380Z,56.37
2018-04-06T09:41:03.333Z,57.04
2018-04-06T09:42:03.297Z,56.94
2018-04-06T09:43:03.285Z,56.85
2018-04-06T09:44:03.284Z,55.80
2018-04-06T09:45:03.208Z,55.32
2018-04-06T09:46:03.198Z,54.37
2018-04-06T09:47:03.171Z,54.18
2018-04-06T09:48:03.213Z,54.27
2018-04-06T09:49:04.406Z,54.27
2018-04-06T09:50:03.732Z,54.18
2018-04-06T09:52:09.777Z,53.61
2018-04-06T09:53:03.033Z,52.84
